sensor_id;sensor_type;location;lat;lon;timestamp;temperature;humidity
53776;DHT22;44276;49.534;6.378;2022-12-24T00:01:34;11.20;99.90
53776;DHT22;44276;49.534;6.378;2022-12-24T00:04:03;11.10;99.90
53776;DHT22;44276;49.534;6.378;2022-12-24T00:06:31;11.00;99.90
53776;DHT22;44276;49.534;6.378;2022-12-24T00:08:59;11.00;99.90
53776;DHT22;44276;49.534;6.378;2022-12-24T00:11:28;11.00;99.90
53776;DHT22;44276;49.534;6.378;2022-12-24T00:13:57;10.90;99.90
53776;DHT22;44276;49.534;6.378;2022-12-24T00:16:25;10.90;99.90
53776;DHT22;44276;49.534;6.378;2022-12-24T00:18:53;10.90;99.90
53776;DHT22;44276;49.534;6.378;2022-12-24T00:21:22;11.00;99.90
53776;DHT22;44276;49.534;6.378;2022-12-24T00:23:50;10.90;99.90
53776;DHT22;44276;49.534;6.378;2022-12-24T00:26:18;10.80;99.90
53776;DHT22;44276;49.534;6.378;2022-12-24T00:28:46;10.70;99.90
53776;DHT22;44276;49.534;6.378;2022-12-24T00:31:17;10.80;99.90
53776;DHT22;44276;49.534;6.378;2022-12-24T00:33:46;10.80;99.90
53776;DHT22;44276;49.534;6.378;2022-12-24T00:36:15;10.80;99.90
53776;DHT22;44276;49.534;6.378;2022-12-24T00:38:45;10.90;99.90
53776;DHT22;44276;49.534;6.378;2022-12-24T00:41:14;10.80;99.90
53776;DHT22;44276;49.534;6.378;2022-12-24T00:43:53;10.70;99.90
53776;DHT22;44276;49.534;6.378;2022-12-24T00:46:25;10.70;99.90
53776;DHT22;44276;49.534;6.378;2022-12-24T00:48:54;10.80;99.90
53776;DHT22;44276;49.534;6.378;2022-12-24T00:51:23;10.80;99.90
53776;DHT22;44276;49.534;6.378;2022-12-24T00:53:53;10.80;99.90
53776;DHT22;44276;49.534;6.378;2022-12-24T00:56:21;10.80;99.90
53776;DHT22;44276;49.534;6.378;2022-12-24T00:58:50;10.80;99.90
53776;DHT22;44276;49.534;6.378;2022-12-24T01:01:19;10.80;99.90
53776;DHT22;44276;49.534;6.378;2022-12-24T01:03:49;10.80;99.90
53776;DHT22;44276;49.534;6.378;2022-12-24T01:06:19;10.70;99.90
53776;DHT22;44276;49.534;6.378;2022-12-24T01:08:49;10.60;99.90
53776;DHT22;44276;49.534;6.378;2022-12-24T01:11:18;10.70;99.90
53776;DHT22;44276;49.534;6.378;2022-12-24T01:13:46;10.80;99.90
53776;DHT22;44276;49.534;6.378;2022-12-24T01:16:17;10.80;99.90
53776;DHT22;44276;49.534;6.378;2022-12-24T01:18:48;10.90;99.90
53776;DHT22;44276;49.534;6.378;2022-12-24T01:21:16;10.90;99.90
53776;DHT22;44276;49.534;6.378;2022-12-24T01:23:44;10.90;99.90
53776;DHT22;44276;49.534;6.378;2022-12-24T01:26:13;10.80;99.90
53776;DHT22;44276;49.534;6.378;2022-12-24T01:28:41;10.80;99.90
53776;DHT22;44276;49.534;6.378;2022-12-24T01:31:10;10.80;99.90
53776;DHT22;44276;49.534;6.378;2022-12-24T01:33:40;10.90;99.90
53776;DHT22;44276;49.534;6.378;2022-12-24T01:36:11;10.80;99.90
53776;DHT22;44276;49.534;6.378;2022-12-24T01:38:40;10.80;99.90
53776;DHT22;44276;49.534;6.378;2022-12-24T01:41:14;10.80;99.90
53776;DHT22;44276;49.534;6.378;2022-12-24T01:44:23;10.90;99.90
53776;DHT22;44276;49.534;6.378;2022-12-24T01:47:06;10.90;99.90
53776;DHT22;44276;49.534;6.378;2022-12-24T01:49:41;10.90;99.90
53776;DHT22;44276;49.534;6.378;2022-12-24T01:52:16;10.90;99.90
53776;DHT22;44276;49.534;6.378;2022-12-24T01:54:51;10.90;99.90
53776;DHT22;44276;49.534;6.378;2022-12-24T01:57:25;10.90;99.90
53776;DHT22;44276;49.534;6.378;2022-12-24T01:59:59;10.80;99.90
53776;DHT22;44276;49.534;6.378;2022-12-24T02:02:31;10.90;99.90
53776;DHT22;44276;49.534;6.378;2022-12-24T02:05:05;10.90;99.90
53776;DHT22;44276;49.534;6.378;2022-12-24T02:07:39;11.00;99.90
53776;DHT22;44276;49.534;6.378;2022-12-24T02:10:10;11.00;99.90
53776;DHT22;44276;49.534;6.378;2022-12-24T02:12:41;11.00;99.90
53776;DHT22;44276;49.534;6.378;2022-12-24T02:15:13;11.10;99.90
53776;DHT22;44276;49.534;6.378;2022-12-24T02:17:54;11.10;99.90
53776;DHT22;44276;49.534;6.378;2022-12-24T02:24:07;11.00;99.90
53776;DHT22;44276;49.534;6.378;2022-12-24T02:27:07;11.10;99.90
53776;DHT22;44276;49.534;6.378;2022-12-24T02:30:15;11.10;99.90
53776;DHT22;44276;49.534;6.378;2022-12-24T02:35:48;11.10;99.90
53776;DHT22;44276;49.534;6.378;2022-12-24T02:38:24;11.10;99.90
53776;DHT22;44276;49.534;6.378;2022-12-24T02:40:59;11.10;99.90
53776;DHT22;44276;49.534;6.378;2022-12-24T02:43:33;11.10;99.90
53776;DHT22;44276;49.534;6.378;2022-12-24T02:46:08;11.00;99.90
53776;DHT22;44276;49.534;6.378;2022-12-24T02:48:42;11.00;99.90
53776;DHT22;44276;49.534;6.378;2022-12-24T02:51:15;10.90;99.90
53776;DHT22;44276;49.534;6.378;2022-12-24T02:53:43;10.90;99.90
53776;DHT22;44276;49.534;6.378;2022-12-24T02:56:22;11.00;99.90
53776;DHT22;44276;49.534;6.378;2022-12-24T03:02:25;11.00;99.90
53776;DHT22;44276;49.534;6.378;2022-12-24T03:05:11;11.10;99.90
53776;DHT22;44276;49.534;6.378;2022-12-24T03:07:55;11.10;99.90
53776;DHT22;44276;49.534;6.378;2022-12-24T03:10:35;11.10;99.90
53776;DHT22;44276;49.534;6.378;2022-12-24T03:13:12;11.10;99.90
53776;DHT22;44276;49.534;6.378;2022-12-24T03:15:44;11.10;99.90
53776;DHT22;44276;49.534;6.378;2022-12-24T03:18:18;11.20;99.90
53776;DHT22;44276;49.534;6.378;2022-12-24T03:20:53;11.20;99.90
53776;DHT22;44276;49.534;6.378;2022-12-24T03:23:27;11.20;99.90
53776;DHT22;44276;49.534;6.378;2022-12-24T03:25:58;11.10;99.90
53776;DHT22;44276;49.534;6.378;2022-12-24T03:28:28;11.20;99.90
53776;DHT22;44276;49.534;6.378;2022-12-24T03:31:00;11.20;99.90
53776;DHT22;44276;49.534;6.378;2022-12-24T03:33:33;11.10;99.90
53776;DHT22;44276;49.534;6.378;2022-12-24T03:36:02;11.10;99.90
53776;DHT22;44276;49.534;6.378;2022-12-24T03:38:32;11.00;99.90
53776;DHT22;44276;49.534;6.378;2022-12-24T03:41:02;10.90;99.90
53776;DHT22;44276;49.534;6.378;2022-12-24T03:43:30;11.00;99.90
53776;DHT22;44276;49.534;6.378;2022-12-24T03:46:03;11.00;99.90
53776;DHT22;44276;49.534;6.378;2022-12-24T03:48:34;11.00;99.90
53776;DHT22;44276;49.534;6.378;2022-12-24T03:51:03;11.00;99.90
53776;DHT22;44276;49.534;6.378;2022-12-24T03:53:32;11.00;99.90
53776;DHT22;44276;49.534;6.378;2022-12-24T03:56:00;11.00;99.90
53776;DHT22;44276;49.534;6.378;2022-12-24T03:58:28;11.10;99.90
53776;DHT22;44276;49.534;6.378;2022-12-24T04:00:57;11.10;99.90
53776;DHT22;44276;49.534;6.378;2022-12-24T04:03:25;11.10;99.90
53776;DHT22;44276;49.534;6.378;2022-12-24T04:06:01;11.10;99.90
53776;DHT22;44276;49.534;6.378;2022-12-24T04:08:31;11.00;99.90
53776;DHT22;44276;49.534;6.378;2022-12-24T04:11:00;11.00;99.90
53776;DHT22;44276;49.534;6.378;2022-12-24T04:13:35;11.00;99.90
53776;DHT22;44276;49.534;6.378;2022-12-24T04:16:05;11.00;99.90
53776;DHT22;44276;49.534;6.378;2022-12-24T04:18:35;11.00;99.90
53776;DHT22;44276;49.534;6.378;2022-12-24T04:21:06;11.00;99.90
53776;DHT22;44276;49.534;6.378;2022-12-24T04:23:36;11.10;99.90
53776;DHT22;44276;49.534;6.378;2022-12-24T04:26:08;11.00;99.90
53776;DHT22;44276;49.534;6.378;2022-12-24T04:28:39;11.10;99.90
53776;DHT22;44276;49.534;6.378;2022-12-24T04:31:10;11.00;99.90
53776;DHT22;44276;49.534;6.378;2022-12-24T04:33:40;11.00;99.90
53776;DHT22;44276;49.534;6.378;2022-12-24T04:36:11;11.00;99.90
53776;DHT22;44276;49.534;6.378;2022-12-24T04:38:43;11.00;99.90
53776;DHT22;44276;49.534;6.378;2022-12-24T04:41:13;11.00;99.90
53776;DHT22;44276;49.534;6.378;2022-12-24T04:43:49;11.00;99.90
53776;DHT22;44276;49.534;6.378;2022-12-24T04:46:20;11.00;99.90
53776;DHT22;44276;49.534;6.378;2022-12-24T04:48:51;10.90;99.90
53776;DHT22;44276;49.534;6.378;2022-12-24T04:51:22;10.90;99.90
53776;DHT22;44276;49.534;6.378;2022-12-24T04:53:51;10.90;99.90
53776;DHT22;44276;49.534;6.378;2022-12-24T04:56:21;10.90;99.90
53776;DHT22;44276;49.534;6.378;2022-12-24T04:58:51;10.90;99.90
53776;DHT22;44276;49.534;6.378;2022-12-24T05:01:21;10.80;99.90
53776;DHT22;44276;49.534;6.378;2022-12-24T05:03:51;10.90;99.90
53776;DHT22;44276;49.534;6.378;2022-12-24T05:06:25;10.90;99.90
53776;DHT22;44276;49.534;6.378;2022-12-24T05:08:56;10.80;99.90
53776;DHT22;44276;49.534;6.378;2022-12-24T05:11:26;10.80;99.90
53776;DHT22;44276;49.534;6.378;2022-12-24T05:13:54;10.90;99.90
53776;DHT22;44276;49.534;6.378;2022-12-24T05:16:23;10.90;99.90
53776;DHT22;44276;49.534;6.378;2022-12-24T05:18:52;11.00;99.90
53776;DHT22;44276;49.534;6.378;2022-12-24T05:21:23;11.00;99.90
53776;DHT22;44276;49.534;6.378;2022-12-24T05:23:52;11.00;99.90
53776;DHT22;44276;49.534;6.378;2022-12-24T05:26:40;10.90;99.90
53776;DHT22;44276;49.534;6.378;2022-12-24T05:29:10;10.90;99.90
53776;DHT22;44276;49.534;6.378;2022-12-24T05:31:39;10.80;99.90
53776;DHT22;44276;49.534;6.378;2022-12-24T05:34:08;10.80;99.90
53776;DHT22;44276;49.534;6.378;2022-12-24T05:36:38;10.80;99.90
53776;DHT22;44276;49.534;6.378;2022-12-24T05:39:07;10.80;99.90
53776;DHT22;44276;49.534;6.378;2022-12-24T05:41:41;10.80;99.90
53776;DHT22;44276;49.534;6.378;2022-12-24T05:44:10;10.90;99.90
53776;DHT22;44276;49.534;6.378;2022-12-24T05:46:38;10.90;99.90
53776;DHT22;44276;49.534;6.378;2022-12-24T05:49:07;10.80;99.90
53776;DHT22;44276;49.534;6.378;2022-12-24T05:51:35;10.80;99.90
53776;DHT22;44276;49.534;6.378;2022-12-24T05:54:06;10.70;99.90
53776;DHT22;44276;49.534;6.378;2022-12-24T05:56:35;10.70;99.90
53776;DHT22;44276;49.534;6.378;2022-12-24T05:59:03;10.80;99.90
53776;DHT22;44276;49.534;6.378;2022-12-24T06:01:31;10.80;99.90
53776;DHT22;44276;49.534;6.378;2022-12-24T06:03:59;10.80;99.90
53776;DHT22;44276;49.534;6.378;2022-12-24T06:06:30;10.80;99.90
53776;DHT22;44276;49.534;6.378;2022-12-24T06:08:59;10.90;99.90
53776;DHT22;44276;49.534;6.378;2022-12-24T06:11:28;10.80;99.90
53776;DHT22;44276;49.534;6.378;2022-12-24T06:13:57;10.80;99.90
53776;DHT22;44276;49.534;6.378;2022-12-24T06:16:25;10.70;99.90
53776;DHT22;44276;49.534;6.378;2022-12-24T06:18:54;10.70;99.90
53776;DHT22;44276;49.534;6.378;2022-12-24T06:21:22;10.60;99.90
53776;DHT22;44276;49.534;6.378;2022-12-24T06:23:51;10.60;99.90
53776;DHT22;44276;49.534;6.378;2022-12-24T06:26:21;10.60;99.90
53776;DHT22;44276;49.534;6.378;2022-12-24T06:28:50;10.50;99.90
53776;DHT22;44276;49.534;6.378;2022-12-24T06:31:21;10.50;99.90
53776;DHT22;44276;49.534;6.378;2022-12-24T06:33:51;10.50;99.90
53776;DHT22;44276;49.534;6.378;2022-12-24T06:36:21;10.60;99.90
53776;DHT22;44276;49.534;6.378;2022-12-24T06:38:51;10.70;99.90
53776;DHT22;44276;49.534;6.378;2022-12-24T06:41:22;10.50;99.90
53776;DHT22;44276;49.534;6.378;2022-12-24T06:43:52;10.50;99.90
53776;DHT22;44276;49.534;6.378;2022-12-24T06:46:22;10.60;99.90
53776;DHT22;44276;49.534;6.378;2022-12-24T06:48:50;10.60;99.90
53776;DHT22;44276;49.534;6.378;2022-12-24T06:51:21;10.60;99.90
53776;DHT22;44276;49.534;6.378;2022-12-24T06:53:49;10.60;99.90
53776;DHT22;44276;49.534;6.378;2022-12-24T06:56:21;10.70;99.90
53776;DHT22;44276;49.534;6.378;2022-12-24T06:58:49;10.60;99.90
53776;DHT22;44276;49.534;6.378;2022-12-24T07:01:18;10.40;99.90
53776;DHT22;44276;49.534;6.378;2022-12-24T07:03:47;10.30;99.90
53776;DHT22;44276;49.534;6.378;2022-12-24T07:06:18;10.30;99.90
53776;DHT22;44276;49.534;6.378;2022-12-24T07:08:51;10.20;99.90
53776;DHT22;44276;49.534;6.378;2022-12-24T07:11:20;10.30;99.90
53776;DHT22;44276;49.534;6.378;2022-12-24T07:13:50;10.30;99.90
53776;DHT22;44276;49.534;6.378;2022-12-24T07:16:18;10.30;99.90
53776;DHT22;44276;49.534;6.378;2022-12-24T07:18:47;10.20;99.90
53776;DHT22;44276;49.534;6.378;2022-12-24T07:21:15;10.10;99.90
53776;DHT22;44276;49.534;6.378;2022-12-24T07:23:43;10.00;99.90
53776;DHT22;44276;49.534;6.378;2022-12-24T07:26:11;10.10;99.90
53776;DHT22;44276;49.534;6.378;2022-12-24T07:28:41;10.20;99.90
53776;DHT22;44276;49.534;6.378;2022-12-24T07:31:09;10.20;99.90
53776;DHT22;44276;49.534;6.378;2022-12-24T07:33:37;10.10;99.90
53776;DHT22;44276;49.534;6.378;2022-12-24T07:36:07;10.10;99.90
53776;DHT22;44276;49.534;6.378;2022-12-24T07:38:37;10.10;99.90
53776;DHT22;44276;49.534;6.378;2022-12-24T07:41:05;10.10;99.90
53776;DHT22;44276;49.534;6.378;2022-12-24T07:43:33;10.20;99.90
53776;DHT22;44276;49.534;6.378;2022-12-24T07:46:03;10.20;99.90
53776;DHT22;44276;49.534;6.378;2022-12-24T07:48:32;10.20;99.90
53776;DHT22;44276;49.534;6.378;2022-12-24T07:51:01;10.10;99.90
53776;DHT22;44276;49.534;6.378;2022-12-24T07:53:30;10.00;99.90
53776;DHT22;44276;49.534;6.378;2022-12-24T07:55:58;10.00;99.90
53776;DHT22;44276;49.534;6.378;2022-12-24T07:58:28;10.00;99.90
53776;DHT22;44276;49.534;6.378;2022-12-24T08:00:58;10.10;99.90
53776;DHT22;44276;49.534;6.378;2022-12-24T08:03:28;10.10;99.90
53776;DHT22;44276;49.534;6.378;2022-12-24T08:05:56;10.10;99.90
53776;DHT22;44276;49.534;6.378;2022-12-24T08:08:25;10.30;99.90
53776;DHT22;44276;49.534;6.378;2022-12-24T08:10:53;10.30;99.90
53776;DHT22;44276;49.534;6.378;2022-12-24T08:13:26;10.40;99.90
53776;DHT22;44276;49.534;6.378;2022-12-24T08:15:54;10.60;99.90
53776;DHT22;44276;49.534;6.378;2022-12-24T08:18:23;10.70;99.90
53776;DHT22;44276;49.534;6.378;2022-12-24T08:20:53;10.80;99.90
53776;DHT22;44276;49.534;6.378;2022-12-24T08:23:21;10.80;99.90
53776;DHT22;44276;49.534;6.378;2022-12-24T08:25:49;10.90;99.90
53776;DHT22;44276;49.534;6.378;2022-12-24T08:28:18;10.90;99.90
53776;DHT22;44276;49.534;6.378;2022-12-24T08:30:48;10.90;99.90
53776;DHT22;44276;49.534;6.378;2022-12-24T08:33:17;10.90;99.90
53776;DHT22;44276;49.534;6.378;2022-12-24T08:35:47;10.90;99.90
53776;DHT22;44276;49.534;6.378;2022-12-24T08:38:17;11.00;99.90
53776;DHT22;44276;49.534;6.378;2022-12-24T08:40:46;10.90;99.90
53776;DHT22;44276;49.534;6.378;2022-12-24T08:43:19;10.90;99.90
53776;DHT22;44276;49.534;6.378;2022-12-24T08:45:47;10.90;99.90
53776;DHT22;44276;49.534;6.378;2022-12-24T08:48:17;10.90;99.90
53776;DHT22;44276;49.534;6.378;2022-12-24T08:50:45;11.00;99.90
53776;DHT22;44276;49.534;6.378;2022-12-24T08:53:14;11.00;99.90
53776;DHT22;44276;49.534;6.378;2022-12-24T08:55:43;11.00;99.90
53776;DHT22;44276;49.534;6.378;2022-12-24T08:58:21;11.10;99.90
53776;DHT22;44276;49.534;6.378;2022-12-24T09:00:50;11.20;99.90
53776;DHT22;44276;49.534;6.378;2022-12-24T09:03:19;11.30;99.90
53776;DHT22;44276;49.534;6.378;2022-12-24T09:05:53;11.20;99.90
53776;DHT22;44276;49.534;6.378;2022-12-24T09:08:22;11.20;99.90
53776;DHT22;44276;49.534;6.378;2022-12-24T09:10:52;11.20;99.90
53776;DHT22;44276;49.534;6.378;2022-12-24T09:13:20;11.20;99.90
53776;DHT22;44276;49.534;6.378;2022-12-24T09:15:52;11.20;99.90
53776;DHT22;44276;49.534;6.378;2022-12-24T09:18:21;11.20;99.90
53776;DHT22;44276;49.534;6.378;2022-12-24T09:20:49;11.20;99.90
53776;DHT22;44276;49.534;6.378;2022-12-24T09:23:23;11.30;99.90
53776;DHT22;44276;49.534;6.378;2022-12-24T09:25:53;11.40;99.90
53776;DHT22;44276;49.534;6.378;2022-12-24T09:28:22;11.60;99.90
53776;DHT22;44276;49.534;6.378;2022-12-24T09:30:55;11.60;99.90
53776;DHT22;44276;49.534;6.378;2022-12-24T09:33:25;11.60;99.90
53776;DHT22;44276;49.534;6.378;2022-12-24T09:35:54;11.80;99.90
53776;DHT22;44276;49.534;6.378;2022-12-24T09:38:23;11.90;99.90
53776;DHT22;44276;49.534;6.378;2022-12-24T09:40:54;12.00;99.90
53776;DHT22;44276;49.534;6.378;2022-12-24T09:43:24;12.10;99.90
53776;DHT22;44276;49.534;6.378;2022-12-24T09:46:04;12.00;99.90
53776;DHT22;44276;49.534;6.378;2022-12-24T09:48:42;12.00;99.90
53776;DHT22;44276;49.534;6.378;2022-12-24T09:51:23;12.10;99.90
53776;DHT22;44276;49.534;6.378;2022-12-24T09:53:56;12.10;99.90
53776;DHT22;44276;49.534;6.378;2022-12-24T09:56:36;12.00;99.90
53776;DHT22;44276;49.534;6.378;2022-12-24T09:59:12;11.90;99.90
53776;DHT22;44276;49.534;6.378;2022-12-24T10:01:42;11.90;99.90
53776;DHT22;44276;49.534;6.378;2022-12-24T10:04:13;11.90;99.90
53776;DHT22;44276;49.534;6.378;2022-12-24T10:06:48;12.00;99.90
53776;DHT22;44276;49.534;6.378;2022-12-24T10:09:29;12.20;99.90
53776;DHT22;44276;49.534;6.378;2022-12-24T10:12:15;12.20;99.90
53776;DHT22;44276;49.534;6.378;2022-12-24T10:14:57;12.10;99.90
53776;DHT22;44276;49.534;6.378;2022-12-24T10:17:48;12.20;99.90
53776;DHT22;44276;49.534;6.378;2022-12-24T10:20:35;12.30;99.90
53776;DHT22;44276;49.534;6.378;2022-12-24T10:23:16;12.40;99.90
53776;DHT22;44276;49.534;6.378;2022-12-24T10:25:59;12.50;99.90
53776;DHT22;44276;49.534;6.378;2022-12-24T10:28:43;12.50;99.90
53776;DHT22;44276;49.534;6.378;2022-12-24T10:31:15;12.40;99.90
53776;DHT22;44276;49.534;6.378;2022-12-24T10:33:49;12.50;99.90
53776;DHT22;44276;49.534;6.378;2022-12-24T10:36:29;12.50;99.90
53776;DHT22;44276;49.534;6.378;2022-12-24T10:38:58;12.40;99.90
53776;DHT22;44276;49.534;6.378;2022-12-24T10:41:27;12.40;99.90
53776;DHT22;44276;49.534;6.378;2022-12-24T10:44:03;12.30;99.90
53776;DHT22;44276;49.534;6.378;2022-12-24T10:46:36;12.20;99.90
53776;DHT22;44276;49.534;6.378;2022-12-24T10:49:07;12.10;99.90
53776;DHT22;44276;49.534;6.378;2022-12-24T10:51:44;12.10;99.90
53776;DHT22;44276;49.534;6.378;2022-12-24T10:54:19;12.20;99.90
53776;DHT22;44276;49.534;6.378;2022-12-24T10:56:56;12.30;99.90
53776;DHT22;44276;49.534;6.378;2022-12-24T10:59:30;12.30;99.90
53776;DHT22;44276;49.534;6.378;2022-12-24T11:02:26;12.40;99.90
53776;DHT22;44276;49.534;6.378;2022-12-24T11:04:57;12.40;99.90
53776;DHT22;44276;49.534;6.378;2022-12-24T11:07:27;12.40;99.90
53776;DHT22;44276;49.534;6.378;2022-12-24T11:09:58;12.30;99.90
53776;DHT22;44276;49.534;6.378;2022-12-24T11:12:30;12.30;99.90
53776;DHT22;44276;49.534;6.378;2022-12-24T11:15:07;12.30;99.90
53776;DHT22;44276;49.534;6.378;2022-12-24T11:17:52;12.30;99.90
53776;DHT22;44276;49.534;6.378;2022-12-24T11:20:22;12.20;99.90
53776;DHT22;44276;49.534;6.378;2022-12-24T11:22:54;12.20;99.90
53776;DHT22;44276;49.534;6.378;2022-12-24T11:25:26;12.40;99.90
53776;DHT22;44276;49.534;6.378;2022-12-24T11:28:10;12.60;99.90
53776;DHT22;44276;49.534;6.378;2022-12-24T11:30:56;12.60;99.90
53776;DHT22;44276;49.534;6.378;2022-12-24T11:33:31;12.60;99.90
53776;DHT22;44276;49.534;6.378;2022-12-24T11:36:14;12.70;99.90
53776;DHT22;44276;49.534;6.378;2022-12-24T11:38:51;12.70;99.90
53776;DHT22;44276;49.534;6.378;2022-12-24T11:41:21;12.60;99.90
53776;DHT22;44276;49.534;6.378;2022-12-24T11:43:58;12.60;99.90
53776;DHT22;44276;49.534;6.378;2022-12-24T11:46:39;12.70;99.90
53776;DHT22;44276;49.534;6.378;2022-12-24T11:49:20;12.70;99.90
53776;DHT22;44276;49.534;6.378;2022-12-24T11:52:12;12.60;99.90
53776;DHT22;44276;49.534;6.378;2022-12-24T11:54:59;12.40;99.90
53776;DHT22;44276;49.534;6.378;2022-12-24T11:57:48;12.50;99.90
53776;DHT22;44276;49.534;6.378;2022-12-24T12:01:09;12.40;99.90
53776;DHT22;44276;49.534;6.378;2022-12-24T12:03:49;12.30;99.90
53776;DHT22;44276;49.534;6.378;2022-12-24T12:06:26;12.20;99.90
53776;DHT22;44276;49.534;6.378;2022-12-24T12:09:12;12.00;99.90
53776;DHT22;44276;49.534;6.378;2022-12-24T12:12:20;12.00;99.90
53776;DHT22;44276;49.534;6.378;2022-12-24T12:14:57;12.00;99.90
53776;DHT22;44276;49.534;6.378;2022-12-24T12:17:50;12.10;99.90
53776;DHT22;44276;49.534;6.378;2022-12-24T12:20:44;12.10;99.90
53776;DHT22;44276;49.534;6.378;2022-12-24T12:23:34;12.10;99.90
53776;DHT22;44276;49.534;6.378;2022-12-24T12:26:26;12.10;99.90
53776;DHT22;44276;49.534;6.378;2022-12-24T12:29:00;12.40;99.90
53776;DHT22;44276;49.534;6.378;2022-12-24T12:31:35;12.50;99.90
53776;DHT22;44276;49.534;6.378;2022-12-24T12:34:12;12.70;99.90
53776;DHT22;44276;49.534;6.378;2022-12-24T12:36:48;12.70;99.90
53776;DHT22;44276;49.534;6.378;2022-12-24T12:39:19;12.70;99.90
53776;DHT22;44276;49.534;6.378;2022-12-24T12:41:53;12.70;99.90
53776;DHT22;44276;49.534;6.378;2022-12-24T12:45:09;12.70;99.90
53776;DHT22;44276;49.534;6.378;2022-12-24T12:48:39;12.70;99.90
53776;DHT22;44276;49.534;6.378;2022-12-24T12:51:40;12.70;99.90
53776;DHT22;44276;49.534;6.378;2022-12-24T12:54:34;12.60;99.90
53776;DHT22;44276;49.534;6.378;2022-12-24T12:57:27;12.50;99.90
53776;DHT22;44276;49.534;6.378;2022-12-24T13:00:03;12.50;99.90
53776;DHT22;44276;49.534;6.378;2022-12-24T13:03:26;12.50;99.90
53776;DHT22;44276;49.534;6.378;2022-12-24T13:10:05;11.90;99.90
53776;DHT22;44276;49.534;6.378;2022-12-24T13:12:58;11.80;99.90
53776;DHT22;44276;49.534;6.378;2022-12-24T13:15:58;11.70;99.90
53776;DHT22;44276;49.534;6.378;2022-12-24T13:19:26;11.60;99.90
53776;DHT22;44276;49.534;6.378;2022-12-24T13:22:14;11.50;99.90
53776;DHT22;44276;49.534;6.378;2022-12-24T13:25:02;11.40;99.90
53776;DHT22;44276;49.534;6.378;2022-12-24T13:27:50;11.40;99.90
53776;DHT22;44276;49.534;6.378;2022-12-24T13:30:37;11.40;99.90
53776;DHT22;44276;49.534;6.378;2022-12-24T13:33:10;11.40;99.90
53776;DHT22;44276;49.534;6.378;2022-12-24T13:36:01;11.60;99.90
53776;DHT22;44276;49.534;6.378;2022-12-24T13:38:33;11.60;99.90
53776;DHT22;44276;49.534;6.378;2022-12-24T13:41:44;11.60;99.90
53776;DHT22;44276;49.534;6.378;2022-12-24T13:44:35;11.60;99.90
53776;DHT22;44276;49.534;6.378;2022-12-24T13:47:21;11.50;99.90
53776;DHT22;44276;49.534;6.378;2022-12-24T13:50:16;11.60;99.90
53776;DHT22;44276;49.534;6.378;2022-12-24T13:52:50;11.60;99.90
53776;DHT22;44276;49.534;6.378;2022-12-24T13:55:20;11.60;99.90
53776;DHT22;44276;49.534;6.378;2022-12-24T13:57:56;11.70;99.90
53776;DHT22;44276;49.534;6.378;2022-12-24T14:00:33;11.80;99.90
53776;DHT22;44276;49.534;6.378;2022-12-24T14:03:23;11.80;99.90
53776;DHT22;44276;49.534;6.378;2022-12-24T14:05:57;11.80;99.90
53776;DHT22;44276;49.534;6.378;2022-12-24T14:08:33;11.70;99.90
53776;DHT22;44276;49.534;6.378;2022-12-24T14:11:06;11.70;99.90
53776;DHT22;44276;49.534;6.378;2022-12-24T14:16:57;11.60;99.90
53776;DHT22;44276;49.534;6.378;2022-12-24T14:19:37;11.50;99.90
53776;DHT22;44276;49.534;6.378;2022-12-24T14:22:23;11.50;99.90
53776;DHT22;44276;49.534;6.378;2022-12-24T14:24:58;11.50;99.90
53776;DHT22;44276;49.534;6.378;2022-12-24T14:27:36;11.40;99.90
53776;DHT22;44276;49.534;6.378;2022-12-24T14:30:18;11.40;99.90
53776;DHT22;44276;49.534;6.378;2022-12-24T14:32:52;11.40;99.90
53776;DHT22;44276;49.534;6.378;2022-12-24T14:35:24;11.40;99.90
53776;DHT22;44276;49.534;6.378;2022-12-24T14:37:57;11.30;99.90
53776;DHT22;44276;49.534;6.378;2022-12-24T14:40:33;11.30;99.90
53776;DHT22;44276;49.534;6.378;2022-12-24T14:43:15;11.30;99.90
53776;DHT22;44276;49.534;6.378;2022-12-24T14:46:02;11.20;99.90
53776;DHT22;44276;49.534;6.378;2022-12-24T14:48:44;11.20;99.90
53776;DHT22;44276;49.534;6.378;2022-12-24T14:51:23;11.20;99.90
53776;DHT22;44276;49.534;6.378;2022-12-24T14:54:13;11.20;99.90
53776;DHT22;44276;49.534;6.378;2022-12-24T14:57:13;11.20;99.90
53776;DHT22;44276;49.534;6.378;2022-12-24T14:59:49;11.20;99.90
53776;DHT22;44276;49.534;6.378;2022-12-24T15:02:37;11.20;99.90
53776;DHT22;44276;49.534;6.378;2022-12-24T15:05:16;11.10;99.90
53776;DHT22;44276;49.534;6.378;2022-12-24T15:07:49;11.10;99.90
53776;DHT22;44276;49.534;6.378;2022-12-24T15:10:26;11.10;99.90
53776;DHT22;44276;49.534;6.378;2022-12-24T15:13:02;11.00;99.90
53776;DHT22;44276;49.534;6.378;2022-12-24T15:15:33;11.00;99.90
53776;DHT22;44276;49.534;6.378;2022-12-24T15:18:03;11.00;99.90
53776;DHT22;44276;49.534;6.378;2022-12-24T15:20:32;11.00;99.90
53776;DHT22;44276;49.534;6.378;2022-12-24T15:23:00;10.90;99.90
53776;DHT22;44276;49.534;6.378;2022-12-24T15:25:31;10.90;99.90
53776;DHT22;44276;49.534;6.378;2022-12-24T15:28:00;10.90;99.90
53776;DHT22;44276;49.534;6.378;2022-12-24T15:30:30;10.80;99.90
53776;DHT22;44276;49.534;6.378;2022-12-24T15:33:00;10.80;99.90
53776;DHT22;44276;49.534;6.378;2022-12-24T15:35:49;10.80;99.90
53776;DHT22;44276;49.534;6.378;2022-12-24T15:38:32;10.70;99.90
53776;DHT22;44276;49.534;6.378;2022-12-24T15:41:05;10.60;99.90
53776;DHT22;44276;49.534;6.378;2022-12-24T15:43:43;10.60;99.90
53776;DHT22;44276;49.534;6.378;2022-12-24T15:46:23;10.50;99.90
53776;DHT22;44276;49.534;6.378;2022-12-24T15:48:55;10.40;99.90
53776;DHT22;44276;49.534;6.378;2022-12-24T15:51:28;10.30;99.90
53776;DHT22;44276;49.534;6.378;2022-12-24T15:54:05;10.20;99.90
53776;DHT22;44276;49.534;6.378;2022-12-24T15:56:44;10.10;99.90
53776;DHT22;44276;49.534;6.378;2022-12-24T15:59:28;10.00;99.90
53776;DHT22;44276;49.534;6.378;2022-12-24T16:02:36;9.90;99.90
53776;DHT22;44276;49.534;6.378;2022-12-24T16:08:26;9.80;99.90
53776;DHT22;44276;49.534;6.378;2022-12-24T16:11:16;9.80;99.90
53776;DHT22;44276;49.534;6.378;2022-12-24T16:14:01;9.90;99.90
53776;DHT22;44276;49.534;6.378;2022-12-24T16:16:36;10.00;99.90
53776;DHT22;44276;49.534;6.378;2022-12-24T16:19:13;10.00;99.90
53776;DHT22;44276;49.534;6.378;2022-12-24T16:21:45;10.10;99.90
53776;DHT22;44276;49.534;6.378;2022-12-24T16:24:21;10.10;99.90
53776;DHT22;44276;49.534;6.378;2022-12-24T16:26:51;10.20;99.90
53776;DHT22;44276;49.534;6.378;2022-12-24T16:29:20;10.20;99.90
53776;DHT22;44276;49.534;6.378;2022-12-24T16:31:52;10.20;99.90
53776;DHT22;44276;49.534;6.378;2022-12-24T16:34:25;10.30;99.90
53776;DHT22;44276;49.534;6.378;2022-12-24T16:36:58;10.30;99.90
53776;DHT22;44276;49.534;6.378;2022-12-24T16:39:31;10.30;99.90